Time;durP1;ratioP1;P1;durP2;ratioP2;P2;SDS_P1;SDS_P2;PMS_P1;PMS_P2;Temp;Humidity;BMP_temperature;BMP_pressure;BME280_temperature;BME280_humidity;BME280_pressure;Samples;Min_cycle;Max_cycle;Signal;HPM_P1;HPM_P2
2022/04/01 00:00:05;;;;;;;8.38;7.30;;;0.10;99.90;;;;;;4995486;28;20037;-84
2022/04/01 00:02:31;;;;;;;9.07;7.18;;;0.10;99.90;;;;;;4995867;28;20394;-84
2022/04/01 00:04:56;;;;;;;9.35;7.18;;;0.10;99.90;;;;;;4995782;28;20023;-83
2022/04/01 00:07:22;;;;;;;9.05;8.00;;;0.00;99.90;;;;;;4995127;28;20042;-83
2022/04/01 00:09:47;;;;;;;9.05;7.10;;;0.10;99.90;;;;;;4995613;28;20085;-83
2022/04/01 00:12:13;;;;;;;9.95;6.55;;;0.10;99.90;;;;;;4995556;28;20164;-84
2022/04/01 00:14:39;;;;;;;11.00;6.38;;;0.00;99.90;;;;;;4994277;28;20058;-84
2022/04/01 00:17:05;;;;;;;7.82;6.07;;;0.00;99.90;;;;;;4995925;28;20034;-84
2022/04/01 00:19:30;;;;;;;5.28;4.80;;;0.00;99.90;;;;;;4995390;28;20018;-83
2022/04/01 00:21:56;;;;;;;8.48;6.35;;;0.00;99.90;;;;;;4994075;28;20026;-83
2022/04/01 00:24:22;;;;;;;8.98;6.72;;;0.00;99.90;;;;;;4994214;28;20052;-83
2022/04/01 00:26:48;;;;;;;7.35;5.40;;;0.00;99.90;;;;;;4995394;28;20070;-84
2022/04/01 00:29:15;;;;;;;9.57;6.40;;;0.00;99.90;;;;;;4995449;28;20077;-83
2022/04/01 00:31:48;;;;;;;8.93;6.20;;;0.00;99.90;;;;;;4993954;28;20060;-84
2022/04/01 00:34:15;;;;;;;6.60;5.53;;;0.00;99.90;;;;;;4995276;28;20142;-84
2022/04/01 00:36:45;;;;;;;9.15;7.07;;;0.00;99.90;;;;;;4995195;28;20042;-84
2022/04/01 00:39:12;;;;;;;8.65;6.50;;;0.00;99.90;;;;;;4995151;28;20026;-83
2022/04/01 00:41:38;;;;;;;6.97;6.00;;;0.00;99.90;;;;;;4995116;28;20033;-83
2022/04/01 00:44:19;;;;;;;6.85;5.88;;;0.00;99.90;;;;;;4994954;28;20030;-83
2022/04/01 00:46:53;;;;;;;8.40;6.50;;;0.00;99.90;;;;;;4994829;28;20443;-84
2022/04/01 00:49:20;;;;;;;8.02;5.95;;;0.00;99.90;;;;;;4995071;28;20037;-84
2022/04/01 00:51:49;;;;;;;8.10;6.25;;;0.00;99.90;;;;;;4993689;28;20022;-84
2022/04/01 00:54:16;;;;;;;6.90;5.82;;;0.00;99.90;;;;;;4994962;28;20127;-84
2022/04/01 00:56:42;;;;;;;7.47;6.40;;;0.00;99.90;;;;;;4994709;28;20019;-84
2022/04/01 00:59:09;;;;;;;8.80;6.15;;;0.00;99.90;;;;;;4995398;28;20077;-83
2022/04/01 01:01:36;;;;;;;7.93;6.55;;;0.00;99.90;;;;;;4994898;28;20026;-84
2022/04/01 01:04:10;;;;;;;9.30;6.93;;;0.00;99.90;;;;;;4994649;28;20130;-83
2022/04/01 01:06:43;;;;;;;7.28;6.22;;;0.00;99.90;;;;;;4994513;28;20034;-84
2022/04/01 01:09:09;;;;;;;6.88;5.97;;;0.00;99.90;;;;;;4994703;28;20076;-84
2022/04/01 01:11:36;;;;;;;8.27;6.78;;;0.00;99.90;;;;;;4994705;28;20089;-84
2022/04/01 01:14:03;;;;;;;8.60;7.13;;;0.00;99.90;;;;;;4994257;28;20062;-84
2022/04/01 01:16:29;;;;;;;9.10;6.32;;;0.00;99.90;;;;;;4993992;28;20084;-83
2022/04/01 01:19:05;;;;;;;6.97;6.28;;;0.00;99.90;;;;;;4993451;28;20035;-84
2022/04/01 01:21:32;;;;;;;6.35;5.50;;;0.00;99.90;;;;;;4993009;28;20033;-84
2022/04/01 01:24:08;;;;;;;6.78;5.57;;;0.00;99.90;;;;;;4994242;28;20392;-84
2022/04/01 01:26:36;;;;;;;7.78;6.38;;;0.00;99.90;;;;;;4993136;28;20431;-84
2022/04/01 01:29:04;;;;;;;6.78;5.43;;;0.00;99.90;;;;;;4992915;28;20122;-83
2022/04/01 01:31:30;;;;;;;9.57;5.63;;;0.00;99.90;;;;;;4994131;28;20021;-83
2022/04/01 01:33:57;;;;;;;9.00;6.55;;;-0.10;99.90;;;;;;4994357;28;20362;-84
2022/04/01 01:36:24;;;;;;;9.48;5.80;;;0.00;99.90;;;;;;4993894;28;20035;-83
2022/04/01 01:38:50;;;;;;;9.60;6.50;;;-0.10;99.90;;;;;;4994208;28;20045;-83
2022/04/01 01:41:16;;;;;;;8.13;5.40;;;0.00;99.90;;;;;;4993806;28;20093;-83
2022/04/01 01:43:42;;;;;;;8.00;5.93;;;-0.10;99.90;;;;;;4993838;28;20045;-83
2022/04/01 01:46:08;;;;;;;8.25;6.00;;;-0.10;99.90;;;;;;4993792;28;20396;-83
2022/04/01 01:48:34;;;;;;;8.35;6.55;;;-0.10;99.90;;;;;;5009076;28;20030;-83
2022/04/01 01:56:28;;;;;;;10.20;8.15;;;-0.10;99.90;;;;;;4994156;28;20125;-83
2022/04/01 01:58:54;;;;;;;10.75;6.85;;;-0.10;99.90;;;;;;5008827;28;20112;-83
2022/04/01 02:01:21;;;;;;;8.88;6.78;;;-0.10;99.90;;;;;;4993954;28;20101;-84
2022/04/01 02:03:47;;;;;;;10.90;8.25;;;-0.10;99.90;;;;;;4993978;28;20026;-84
2022/04/01 02:06:13;;;;;;;12.00;7.88;;;-0.10;99.90;;;;;;4994106;28;20117;-84
2022/04/01 02:08:40;;;;;;;10.48;7.70;;;-0.10;99.90;;;;;;4993935;28;20023;-83
2022/04/01 02:11:07;;;;;;;9.75;8.75;;;-0.20;99.90;;;;;;4993716;28;20090;-84
2022/04/01 02:13:33;;;;;;;9.45;6.50;;;-0.10;99.90;;;;;;4993686;28;20108;-84
2022/04/01 02:15:59;;;;;;;10.25;7.88;;;-0.20;99.90;;;;;;4993747;28;20105;-84
2022/04/01 02:18:25;;;;;;;11.75;7.70;;;-0.20;99.90;;;;;;4978369;28;20114;-83
2022/04/01 02:20:50;;;;;;;10.60;7.50;;;-0.20;99.90;;;;;;4974149;28;20241;-84
2022/04/01 02:23:16;;;;;;;11.48;9.30;;;-0.20;99.90;;;;;;4974111;28;20034;-84
2022/04/01 02:25:43;;;;;;;10.13;7.05;;;-0.20;99.90;;;;;;4974232;28;20039;-84
2022/04/01 02:28:10;;;;;;;11.10;8.45;;;-0.20;99.90;;;;;;4974145;28;20027;-83
2022/04/01 02:30:35;;;;;;;11.60;8.73;;;-0.20;99.90;;;;;;4975620;28;20031;-84
2022/04/01 02:33:02;;;;;;;11.20;8.35;;;-0.20;99.90;;;;;;4977950;28;20502;-84
2022/04/01 02:35:28;;;;;;;10.30;7.63;;;-0.20;99.90;;;;;;4978142;28;20358;-84
2022/04/01 02:37:54;;;;;;;9.18;7.20;;;-0.20;99.90;;;;;;4977895;28;20019;-83
2022/04/01 02:40:20;;;;;;;9.82;7.57;;;-0.10;99.90;;;;;;4977958;28;20081;-84
2022/04/01 02:42:46;;;;;;;10.75;8.75;;;-0.10;99.90;;;;;;4977971;28;20458;-84
2022/04/01 02:45:13;;;;;;;6.82;5.55;;;-0.10;99.90;;;;;;4992671;28;20440;-84
2022/04/01 02:47:40;;;;;;;10.10;7.63;;;-0.20;99.90;;;;;;4977830;28;20392;-83
2022/04/01 02:50:07;;;;;;;11.00;7.35;;;-0.20;99.90;;;;;;4977856;28;20110;-84
2022/04/01 02:52:33;;;;;;;8.93;7.38;;;-0.20;99.90;;;;;;4977528;28;20038;-85
2022/04/01 02:54:58;;;;;;;9.70;6.40;;;-0.20;99.90;;;;;;4992368;28;20162;-83
2022/04/01 02:57:24;;;;;;;11.55;8.23;;;-0.20;99.90;;;;;;4977554;28;20027;-83
2022/04/01 02:59:49;;;;;;;8.77;7.78;;;-0.20;99.90;;;;;;4977548;28;20066;-83
2022/04/01 03:02:15;;;;;;;9.60;7.40;;;-0.20;99.90;;;;;;4977596;28;20038;-84
2022/04/01 03:04:42;;;;;;;10.43;7.88;;;-0.20;99.90;;;;;;4976306;28;20026;-83
2022/04/01 03:07:07;;;;;;;12.32;9.65;;;-0.20;99.90;;;;;;4977265;28;20041;-83
2022/04/01 03:09:33;;;;;;;12.40;8.93;;;-0.20;99.90;;;;;;4977286;28;20400;-84
2022/04/01 03:12:00;;;;;;;11.07;7.95;;;-0.20;99.90;;;;;;4977217;28;20408;-84
2022/04/01 03:14:26;;;;;;;10.30;8.57;;;-0.20;99.90;;;;;;4976706;28;20047;-84
2022/04/01 03:16:52;;;;;;;12.13;8.40;;;-0.30;99.90;;;;;;4976111;28;20018;-84
2022/04/01 03:19:18;;;;;;;10.65;8.52;;;-0.20;99.90;;;;;;4977225;28;20387;-83
2022/04/01 03:21:44;;;;;;;10.82;8.35;;;-0.20;99.90;;;;;;4977245;28;20092;-84
2022/04/01 03:24:11;;;;;;;12.88;9.50;;;-0.20;99.90;;;;;;4977041;28;20033;-84
2022/04/01 03:26:40;;;;;;;12.60;9.55;;;-0.20;99.90;;;;;;4977119;28;20031;-83
2022/04/01 03:29:07;;;;;;;13.98;9.48;;;-0.20;99.90;;;;;;4976832;28;20110;-84
2022/04/01 03:31:33;;;;;;;13.88;10.00;;;-0.20;99.90;;;;;;4976025;28;20019;-84
2022/04/01 03:33:59;;;;;;;10.95;8.77;;;-0.30;99.90;;;;;;4976880;28;20019;-82
2022/04/01 03:36:25;;;;;;;11.73;8.40;;;-0.20;99.90;;;;;;4977105;28;20030;-84
2022/04/01 03:38:51;;;;;;;9.32;7.75;;;-0.30;99.90;;;;;;4991881;28;20023;-84
2022/04/01 03:41:19;;;;;;;10.23;7.75;;;-0.20;99.90;;;;;;4975273;28;20109;-84
2022/04/01 03:43:45;;;;;;;9.05;6.57;;;-0.20;99.90;;;;;;4975091;28;20393;-83
2022/04/01 03:46:13;;;;;;;11.32;8.32;;;-0.30;99.90;;;;;;4976540;28;20035;-84
2022/04/01 03:48:52;;;;;;;10.57;8.13;;;-0.20;99.90;;;;;;4976801;28;20062;-83
2022/04/01 03:51:24;;;;;;;12.75;9.30;;;-0.20;99.90;;;;;;4976511;28;20023;-83
2022/04/01 03:54:00;;;;;;;11.25;8.52;;;-0.30;99.90;;;;;;4976467;28;20042;-83
2022/04/01 03:56:31;;;;;;;11.65;8.98;;;-0.30;99.90;;;;;;4976756;28;20046;-83
2022/04/01 03:59:06;;;;;;;8.68;7.35;;;-0.30;99.90;;;;;;4976591;28;20034;-83
2022/04/01 04:01:34;;;;;;;11.25;8.70;;;-0.30;99.90;;;;;;4976587;28;20046;-83
2022/04/01 04:04:00;;;;;;;10.35;8.07;;;-0.30;99.90;;;;;;4976465;28;20049;-83
2022/04/01 04:06:26;;;;;;;11.98;8.55;;;-0.30;99.90;;;;;;4976314;28;20396;-84
2022/04/01 04:08:58;;;;;;;13.15;8.32;;;-0.30;99.90;;;;;;4976365;28;20074;-83
2022/04/01 04:11:26;;;;;;;11.30;8.07;;;-0.30;99.90;;;;;;4976278;28;20070;-83
2022/04/01 04:13:53;;;;;;;10.63;8.35;;;-0.30;99.90;;;;;;4975929;28;20062;-83
2022/04/01 04:16:24;;;;;;;10.15;7.18;;;-0.30;99.90;;;;;;4976168;28;20492;-83
2022/04/01 04:18:57;;;;;;;10.60;8.13;;;-0.30;99.90;;;;;;4976391;28;20077;-83
2022/04/01 04:21:30;;;;;;;12.25;8.82;;;-0.40;99.90;;;;;;4976251;28;20388;-83
2022/04/01 04:24:01;;;;;;;9.93;8.25;;;-0.30;99.90;;;;;;4976037;28;20011;-84
2022/04/01 04:26:43;;;;;;;11.98;9.35;;;-0.40;99.90;;;;;;4976335;28;20062;-83
2022/04/01 04:29:11;;;;;;;12.85;9.13;;;-0.40;99.90;;;;;;4976288;28;20030;-83
2022/04/01 04:31:40;;;;;;;10.38;8.65;;;-0.40;99.90;;;;;;4976006;28;20385;-84
2022/04/01 04:34:10;;;;;;;8.75;7.53;;;-0.40;99.90;;;;;;4975695;28;20022;-83
2022/04/01 04:36:41;;;;;;;9.35;6.93;;;-0.40;99.90;;;;;;4975141;28;20105;-83
2022/04/01 04:39:10;;;;;;;9.93;8.00;;;-0.40;99.90;;;;;;4974607;28;20377;-83
2022/04/01 04:41:36;;;;;;;9.90;8.55;;;-0.40;99.90;;;;;;4989783;28;20031;-83
2022/04/01 04:44:03;;;;;;;12.10;8.57;;;-0.40;99.90;;;;;;4974255;28;20030;-83
2022/04/01 04:46:30;;;;;;;13.35;9.88;;;-0.40;99.90;;;;;;4975096;28;20035;-84
2022/04/01 04:48:57;;;;;;;12.50;8.93;;;-0.40;99.90;;;;;;4989180;28;20026;-84
2022/04/01 04:51:28;;;;;;;12.52;9.63;;;-0.50;99.90;;;;;;4974938;28;20030;-83
2022/04/01 04:53:59;;;;;;;12.95;8.95;;;-0.50;99.90;;;;;;4974182;28;20035;-82
2022/04/01 04:56:26;;;;;;;11.30;7.75;;;-0.50;99.90;;;;;;4975039;28;20126;-83
2022/04/01 04:58:54;;;;;;;13.00;8.82;;;-0.50;99.90;;;;;;4993304;28;20067;-83
2022/04/01 05:01:38;;;;;;;15.25;10.45;;;-0.50;99.90;;;;;;5004258;28;20118;-84
2022/04/01 05:04:25;;;;;;;10.23;8.60;;;-0.50;99.90;;;;;;4976326;28;20039;-83
2022/04/01 05:07:10;;;;;;;10.10;7.05;;;-0.50;99.90;;;;;;5003150;28;20042;-82
2022/04/01 05:09:55;;;;;;;10.20;7.50;;;-0.50;99.90;;;;;;5006518;28;20026;-84
2022/04/01 05:12:51;;;;;;;8.52;6.22;;;-0.50;99.90;;;;;;5013647;28;20045;-83
2022/04/01 05:15:26;;;;;;;10.13;7.97;;;-0.50;99.90;;;;;;5013499;28;20060;-82
2022/04/01 05:18:07;;;;;;;12.02;9.15;;;-0.50;99.90;;;;;;5012008;28;20022;-82
2022/04/01 05:20:38;;;;;;;9.75;6.97;;;-0.50;99.90;;;;;;5013707;28;20030;-83
2022/04/01 05:23:15;;;;;;;8.90;6.97;;;-0.50;99.90;;;;;;5011991;28;20092;-84
2022/04/01 05:25:54;;;;;;;13.43;9.05;;;-0.50;99.90;;;;;;5012531;28;20038;-82
2022/04/01 05:28:23;;;;;;;11.88;7.93;;;-0.50;99.90;;;;;;5013191;28;20391;-82
2022/04/01 05:31:04;;;;;;;7.95;6.47;;;-0.40;99.90;;;;;;5012472;28;20045;-82
2022/04/01 05:33:54;;;;;;;10.35;8.02;;;-0.50;99.90;;;;;;4995109;28;20096;-82
2022/04/01 05:36:22;;;;;;;8.38;6.68;;;-0.40;99.90;;;;;;4991924;28;20034;-82
2022/04/01 05:38:48;;;;;;;10.90;8.15;;;-0.50;99.90;;;;;;5002121;28;20467;-83
2022/04/01 05:41:19;;;;;;;10.82;7.72;;;-0.50;99.90;;;;;;4994848;28;20069;-82
2022/04/01 05:43:47;;;;;;;11.82;7.55;;;-0.50;99.90;;;;;;4999059;28;20026;-81
2022/04/01 05:46:14;;;;;;;11.48;8.15;;;-0.50;99.90;;;;;;4989906;28;20487;-82
2022/04/01 05:48:41;;;;;;;11.05;8.35;;;-0.50;99.90;;;;;;4993102;28;20452;-82
2022/04/01 05:51:07;;;;;;;10.73;6.88;;;-0.50;99.90;;;;;;4998515;28;20423;-82
2022/04/01 05:53:36;;;;;;;9.98;7.95;;;-0.40;99.90;;;;;;4991483;28;20042;-82
2022/04/01 05:56:03;;;;;;;13.73;8.93;;;-0.50;99.90;;;;;;4997285;28;20029;-82
2022/04/01 05:58:29;;;;;;;12.27;8.90;;;-0.50;99.90;;;;;;5002701;28;20033;-82
2022/04/01 06:01:10;;;;;;;9.00;7.22;;;-0.50;99.90;;;;;;4990584;28;20027;-82
2022/04/01 06:04:00;;;;;;;12.82;8.50;;;-0.50;99.90;;;;;;5009730;28;20010;-83
2022/04/01 06:06:33;;;;;;;10.25;7.57;;;-0.40;99.90;;;;;;5009546;28;20030;-82
2022/04/01 06:09:30;;;;;;;14.70;9.65;;;-0.40;99.90;;;;;;5011189;28;20026;-82
2022/04/01 06:12:04;;;;;;;16.75;8.82;;;-0.50;99.90;;;;;;5011388;28;20105;-82
2022/04/01 06:14:56;;;;;;;15.18;9.63;;;-0.50;99.90;;;;;;5010984;28;20046;-82
2022/04/01 06:17:53;;;;;;;9.48;7.00;;;-0.50;99.90;;;;;;5001054;28;20096;-83
2022/04/01 06:20:24;;;;;;;9.07;8.05;;;-0.50;99.90;;;;;;5011208;28;20095;-82
2022/04/01 06:22:58;;;;;;;10.02;7.78;;;-0.50;99.90;;;;;;5011834;28;20068;-83
2022/04/01 06:25:28;;;;;;;9.02;6.70;;;-0.50;99.90;;;;;;5013136;28;20029;-82
2022/04/01 06:28:25;;;;;;;9.10;6.45;;;-0.50;99.90;;;;;;5013292;28;20022;-83
2022/04/01 06:30:54;;;;;;;12.55;7.15;;;-0.50;99.90;;;;;;5013236;28;20076;-83
2022/04/01 06:33:38;;;;;;;6.25;5.65;;;-0.50;99.90;;;;;;5011900;28;20052;-83
2022/04/01 06:36:05;;;;;;;8.70;6.18;;;-0.50;99.90;;;;;;5013212;28;20036;-82
2022/04/01 06:39:04;;;;;;;9.80;6.05;;;-0.40;99.90;;;;;;5013076;28;20025;-82
2022/04/01 06:41:43;;;;;;;7.68;5.68;;;-0.50;99.90;;;;;;5008783;28;20500;-82
2022/04/01 06:44:09;;;;;;;6.93;5.88;;;-0.40;99.90;;;;;;5013084;28;20032;-83
2022/04/01 06:46:37;;;;;;;8.00;7.18;;;-0.50;99.90;;;;;;5012918;28;20128;-82
2022/04/01 06:49:07;;;;;;;8.43;6.82;;;-0.40;99.90;;;;;;5012937;28;20755;-82
2022/04/01 06:51:37;;;;;;;11.50;6.97;;;-0.40;99.90;;;;;;5012118;28;20034;-84
2022/04/01 06:54:03;;;;;;;9.70;6.53;;;-0.40;99.90;;;;;;5013077;28;20022;-81
2022/04/01 06:56:28;;;;;;;15.80;6.68;;;-0.40;99.90;;;;;;5012803;28;20097;-84
2022/04/01 06:58:54;;;;;;;5.28;4.75;;;-0.40;99.90;;;;;;5012926;28;20022;-82
2022/04/01 07:01:20;;;;;;;6.75;5.47;;;-0.40;99.90;;;;;;5011511;28;20022;-83
2022/04/01 07:03:45;;;;;;;7.55;5.70;;;-0.50;99.90;;;;;;5012803;28;20109;-83
2022/04/01 07:06:11;;;;;;;9.02;7.00;;;-0.50;99.90;;;;;;5012559;28;20038;-83
2022/04/01 07:08:36;;;;;;;9.30;5.80;;;-0.40;99.90;;;;;;5012986;28;20056;-82
2022/04/01 07:11:02;;;;;;;6.65;5.93;;;-0.40;99.90;;;;;;5012867;28;20018;-82
2022/04/01 07:13:28;;;;;;;5.88;5.38;;;-0.30;99.90;;;;;;5012542;28;20061;-83
2022/04/01 07:15:54;;;;;;;8.05;6.38;;;-0.20;99.90;;;;;;5012924;28;20492;-82
2022/04/01 07:18:21;;;;;;;7.43;6.40;;;-0.20;99.90;;;;;;5016238;28;20145;-83
2022/04/01 07:20:47;;;;;;;6.70;5.90;;;-0.10;99.90;;;;;;5016440;28;20076;-83
2022/04/01 07:23:13;;;;;;;8.18;5.93;;;-0.10;99.90;;;;;;5016120;28;20113;-82
2022/04/01 07:25:39;;;;;;;9.02;6.20;;;0.00;99.90;;;;;;5016129;28;20021;-82
2022/04/01 07:28:04;;;;;;;7.50;5.55;;;0.00;99.90;;;;;;5016350;28;20095;-84
2022/04/01 07:30:31;;;;;;;8.18;6.50;;;0.00;99.90;;;;;;5016093;28;20022;-82
2022/04/01 07:32:58;;;;;;;6.63;5.85;;;0.00;99.90;;;;;;5015773;28;20022;-84
2022/04/01 07:35:25;;;;;;;8.45;6.45;;;0.00;99.90;;;;;;5016042;28;20022;-84
2022/04/01 07:37:51;;;;;;;10.75;6.93;;;0.10;99.90;;;;;;5016042;28;20072;-83
2022/04/01 07:40:18;;;;;;;12.48;7.78;;;0.00;99.90;;;;;;5015825;28;20028;-83
2022/04/01 07:42:44;;;;;;;12.73;7.85;;;0.00;99.90;;;;;;5015714;28;20022;-83
2022/04/01 07:45:11;;;;;;;8.15;7.03;;;0.00;99.90;;;;;;5015855;28;20030;-82
2022/04/01 07:47:37;;;;;;;8.73;6.10;;;0.00;99.90;;;;;;5015731;28;20049;-82
2022/04/01 07:50:07;;;;;;;9.65;7.88;;;0.00;99.90;;;;;;5015801;28;20120;-83
2022/04/01 07:52:33;;;;;;;9.45;6.60;;;0.10;99.90;;;;;;5015421;28;20065;-82
2022/04/01 07:54:59;;;;;;;13.98;7.50;;;0.10;99.90;;;;;;5015542;28;20014;-84
2022/04/01 07:57:25;;;;;;;11.27;8.07;;;0.00;99.90;;;;;;5015690;28;20036;-81
2022/04/01 07:59:50;;;;;;;9.10;6.72;;;0.00;99.90;;;;;;5015552;28;20494;-83
2022/04/01 08:02:17;;;;;;;7.80;5.43;;;0.00;99.90;;;;;;5015399;28;20022;-83
2022/04/01 08:04:42;;;;;;;6.38;5.70;;;0.00;99.90;;;;;;5015429;28;20027;-83
2022/04/01 08:07:08;;;;;;;10.10;7.32;;;-0.10;99.90;;;;;;5015455;28;20118;-84
2022/04/01 08:09:35;;;;;;;7.45;6.22;;;0.00;99.90;;;;;;5015409;28;20037;-83
2022/04/01 08:12:03;;;;;;;7.97;6.72;;;0.10;99.90;;;;;;5015337;28;20030;-83
2022/04/01 08:14:29;;;;;;;7.20;5.57;;;0.20;99.90;;;;;;5013757;28;20486;-82
2022/04/01 08:16:56;;;;;;;6.82;5.82;;;0.10;99.90;;;;;;5013259;28;20058;-83
2022/04/01 08:19:22;;;;;;;7.72;6.72;;;-0.10;99.90;;;;;;4995614;28;20098;-82
2022/04/01 08:21:49;;;;;;;9.32;6.50;;;-0.10;99.90;;;;;;4995596;28;20022;-84
2022/04/01 08:24:16;;;;;;;9.32;6.03;;;-0.20;99.90;;;;;;4995641;28;20080;-84
2022/04/01 08:26:42;;;;;;;7.65;6.50;;;-0.30;99.90;;;;;;4995373;28;20065;-84
2022/04/01 08:29:08;;;;;;;8.23;6.70;;;-0.20;99.90;;;;;;4995063;28;20054;-83
2022/04/01 08:31:34;;;;;;;11.90;7.00;;;-0.20;99.90;;;;;;4995348;28;20515;-83
2022/04/01 08:33:59;;;;;;;10.70;7.38;;;-0.30;99.90;;;;;;4995650;28;20883;-81
2022/04/01 08:36:26;;;;;;;8.25;6.97;;;-0.20;99.90;;;;;;4995208;28;20061;-83
2022/04/01 08:38:52;;;;;;;10.88;7.28;;;-0.30;99.90;;;;;;4995143;28;20034;-82
2022/04/01 08:41:20;;;;;;;8.65;6.30;;;-0.20;99.90;;;;;;4995243;28;20057;-83
2022/04/01 08:43:47;;;;;;;11.10;7.90;;;-0.30;99.90;;;;;;4994806;28;20081;-84
2022/04/01 08:46:14;;;;;;;9.18;7.03;;;-0.30;99.90;;;;;;4994993;28;20427;-84
2022/04/01 08:48:41;;;;;;;10.55;8.48;;;-0.20;99.90;;;;;;4994821;28;20037;-82
2022/04/01 08:51:07;;;;;;;8.75;6.57;;;-0.20;99.90;;;;;;4993658;28;20506;-83
2022/04/01 08:53:37;;;;;;;10.30;7.03;;;-0.20;99.90;;;;;;4994949;28;20419;-82
2022/04/01 08:56:03;;;;;;;7.90;7.07;;;-0.10;99.90;;;;;;4994844;28;20026;-83
2022/04/01 08:58:29;;;;;;;10.48;7.78;;;-0.20;99.90;;;;;;4994432;28;20026;-82
2022/04/01 09:00:58;;;;;;;11.32;8.05;;;-0.30;99.90;;;;;;4994495;28;20428;-84
2022/04/01 09:03:24;;;;;;;10.90;8.75;;;-0.20;99.90;;;;;;4994610;28;20026;-84
2022/04/01 09:05:55;;;;;;;7.72;5.38;;;-0.10;99.90;;;;;;4992589;28;20373;-82
2022/04/01 09:08:38;;;;;;;9.55;7.40;;;-0.20;99.90;;;;;;4992527;28;20049;-83
2022/04/01 09:11:05;;;;;;;9.15;7.00;;;-0.20;99.90;;;;;;4994517;28;20116;-84
2022/04/01 09:25:48;;;;;;;10.68;8.52;;;-0.20;99.90;;;;;;5131774;27;20447;-75
2022/04/01 09:28:27;;;;;;;8.48;6.65;;;0.20;99.90;;;;;;5132077;27;20032;-75
2022/04/01 09:31:02;;;;;;;11.38;9.23;;;0.10;99.90;;;;;;5131786;27;20035;-75
2022/04/01 09:33:57;;;;;;;13.70;9.43;;;0.20;99.90;;;;;;5130326;28;20465;-77
2022/04/01 09:36:26;;;;;;;9.15;7.43;;;0.30;99.90;;;;;;5130399;27;20038;-77
2022/04/01 09:38:55;;;;;;;10.60;8.43;;;0.30;99.90;;;;;;5129335;27;20077;-74
2022/04/01 09:41:28;;;;;;;11.38;6.90;;;0.30;99.90;;;;;;5131243;27;20069;-77
2022/04/01 09:44:02;;;;;;;16.92;10.82;;;0.20;99.90;;;;;;5131198;27;20026;-77
2022/04/01 09:46:28;;;;;;;18.73;10.13;;;0.30;99.90;;;;;;5131528;27;20019;-74
2022/04/01 09:48:58;;;;;;;13.50;9.07;;;0.20;99.90;;;;;;5131385;27;20031;-75
2022/04/01 09:51:32;;;;;;;12.32;9.90;;;0.20;99.90;;;;;;5131406;27;20012;-74
2022/04/01 09:54:03;;;;;;;10.10;8.02;;;0.20;99.90;;;;;;5129981;27;20035;-77
2022/04/01 09:56:36;;;;;;;10.65;8.50;;;0.30;99.90;;;;;;5131610;27;20012;-74
2022/04/01 09:59:04;;;;;;;13.07;7.38;;;0.50;99.90;;;;;;5129863;27;20087;-74
2022/04/01 10:01:35;;;;;;;17.98;12.63;;;0.50;99.90;;;;;;5131105;27;20030;-77
2022/04/01 10:04:01;;;;;;;12.93;9.75;;;0.80;99.90;;;;;;5131003;27;20065;-74
2022/04/01 10:06:28;;;;;;;10.25;7.63;;;0.90;99.90;;;;;;5131047;27;20062;-75
2022/04/01 10:08:56;;;;;;;9.02;5.97;;;0.80;99.90;;;;;;5130923;27;20027;-74
2022/04/01 10:11:23;;;;;;;9.13;7.22;;;0.80;99.90;;;;;;5129710;27;20051;-77
2022/04/01 10:13:50;;;;;;;9.80;6.78;;;0.80;99.90;;;;;;5130862;27;20061;-74
2022/04/01 10:16:16;;;;;;;9.85;6.88;;;0.90;99.90;;;;;;5130763;27;20041;-77
2022/04/01 10:18:42;;;;;;;11.07;7.55;;;1.00;99.90;;;;;;5130726;27;20019;-77
2022/04/01 10:21:10;;;;;;;10.95;9.18;;;1.10;99.90;;;;;;5130734;27;20030;-76
2022/04/01 10:23:41;;;;;;;13.27;10.73;;;1.20;99.90;;;;;;5129199;27;20030;-76
2022/04/01 10:26:14;;;;;;;10.82;7.53;;;1.40;99.90;;;;;;5120454;27;20020;-74
2022/04/01 10:28:43;;;;;;;9.35;8.25;;;1.30;99.90;;;;;;5117026;28;20034;-77
2022/04/01 10:31:13;;;;;;;9.60;7.70;;;1.50;99.90;;;;;;5116697;28;20078;-75
2022/04/01 10:33:39;;;;;;;11.52;9.40;;;1.70;99.90;;;;;;5115396;28;20476;-75
2022/04/01 10:36:26;;;;;;;20.13;14.57;;;1.50;99.90;;;;;;5116767;28;20035;-76
2022/04/01 10:39:06;;;;;;;17.33;11.90;;;1.40;99.90;;;;;;5115450;28;20028;-75
2022/04/01 10:41:32;;;;;;;13.38;10.93;;;1.30;99.90;;;;;;5116766;28;20384;-76
2022/04/01 10:43:58;;;;;;;12.80;9.68;;;1.50;99.90;;;;;;5116594;28;20472;-76
2022/04/01 10:46:24;;;;;;;11.50;9.27;;;1.70;99.90;;;;;;5116649;28;20061;-75
2022/04/01 10:52:05;;;;;;;11.27;7.80;;;1.60;99.90;;;;;;5116631;28;20030;-75
2022/04/01 10:54:31;;;;;;;12.80;8.37;;;1.30;99.90;;;;;;5115090;28;20036;-76
2022/04/01 10:57:05;;;;;;;16.73;11.95;;;1.20;99.90;;;;;;5115173;28;20262;-75
2022/04/01 10:59:45;;;;;;;15.18;12.25;;;1.60;99.90;;;;;;5116376;27;20080;-75
2022/04/01 11:02:15;;;;;;;11.55;8.77;;;1.40;99.90;;;;;;5115088;28;20431;-74
2022/04/01 11:04:44;;;;;;;13.52;11.00;;;1.30;99.90;;;;;;5116233;28;20020;-75
2022/04/01 11:07:36;;;;;;;12.23;9.90;;;1.50;99.90;;;;;;5114975;28;20495;-76
2022/04/01 11:10:07;;;;;;;14.05;9.73;;;1.30;99.90;;;;;;5108183;28;20126;-74
2022/04/01 11:12:34;;;;;;;15.73;10.75;;;1.60;99.90;;;;;;5116131;28;20027;-77
2022/04/01 11:14:59;;;;;;;20.60;12.40;;;1.60;99.90;;;;;;5115849;28;20085;-77
2022/04/01 11:17:34;;;;;;;17.08;11.40;;;1.80;99.90;;;;;;5114750;28;20031;-75
2022/04/01 11:20:10;;;;;;;19.63;12.50;;;1.70;99.90;;;;;;5114585;28;20031;-75
2022/04/01 11:22:40;;;;;;;14.38;10.77;;;1.70;99.90;;;;;;5115956;28;20030;-77
2022/04/01 11:25:31;;;;;;;16.88;11.63;;;1.50;99.90;;;;;;5114492;28;20083;-74
2022/04/01 11:28:11;;;;;;;14.95;11.32;;;1.60;99.90;;;;;;5106180;28;20039;-77
2022/04/01 11:30:45;;;;;;;15.65;9.57;;;1.40;99.90;;;;;;5115695;28;20527;-74
2022/04/01 11:33:19;;;;;;;16.65;11.13;;;0.90;99.90;;;;;;5115615;28;20389;-77
2022/04/01 11:35:53;;;;;;;13.27;9.65;;;1.00;99.90;;;;;;5115690;27;20051;-75
2022/04/01 11:38:25;;;;;;;14.60;9.82;;;1.00;99.90;;;;;;5113321;28;20012;-75
2022/04/01 11:40:56;;;;;;;21.50;12.00;;;0.80;99.90;;;;;;5115553;28;20081;-75
2022/04/01 11:43:24;;;;;;;13.82;10.90;;;0.80;99.90;;;;;;5115455;28;20465;-74
2022/04/01 11:45:57;;;;;;;14.27;10.63;;;0.80;99.90;;;;;;5115461;27;20040;-77
2022/04/01 11:48:27;;;;;;;13.73;10.35;;;0.70;99.90;;;;;;5115433;28;20081;-77
2022/04/01 11:50:57;;;;;;;20.40;12.57;;;0.70;99.90;;;;;;5114095;28;20072;-77
2022/04/01 11:53:29;;;;;;;13.52;10.25;;;0.70;99.90;;;;;;5113982;28;20043;-78
2022/04/01 11:55:56;;;;;;;16.05;11.35;;;0.60;99.90;;;;;;5115210;28;20023;-77
2022/04/01 11:58:23;;;;;;;14.25;10.02;;;0.60;99.90;;;;;;5115216;28;20030;-75
2022/04/01 12:00:49;;;;;;;13.70;10.30;;;0.50;99.90;;;;;;5113827;28;20156;-75
2022/04/01 12:03:15;;;;;;;24.13;14.38;;;0.40;99.90;;;;;;5113844;28;20049;-75
2022/04/01 12:05:41;;;;;;;16.73;11.23;;;0.40;99.90;;;;;;5115037;28;20019;-76
2022/04/01 12:10:52;;;;;;;14.32;10.23;;;0.50;99.90;;;;;;5115205;28;20380;-77
2022/04/01 12:13:18;;;;;;;15.18;11.40;;;0.40;99.90;;;;;;5114669;28;20031;-75
2022/04/01 12:15:45;;;;;;;14.48;11.25;;;0.40;99.90;;;;;;5114768;28;20361;-77
2022/04/01 12:18:19;;;;;;;12.52;8.32;;;0.40;99.90;;;;;;5114931;28;20065;-75
2022/04/01 12:20:50;;;;;;;15.85;11.35;;;0.30;99.90;;;;;;5114826;27;20138;-75
2022/04/01 12:23:18;;;;;;;14.18;10.60;;;0.30;99.90;;;;;;5114688;28;20089;-75
2022/04/01 12:25:45;;;;;;;12.77;9.23;;;0.30;99.90;;;;;;5114515;27;20073;-75
2022/04/01 12:28:13;;;;;;;13.30;9.88;;;0.30;99.90;;;;;;5113372;28;20473;-75
2022/04/01 12:30:49;;;;;;;11.48;9.27;;;0.40;99.90;;;;;;5114265;28;20030;-75
2022/04/01 12:33:16;;;;;;;16.30;11.43;;;0.30;99.90;;;;;;5114448;27;20031;-74
2022/04/01 12:35:56;;;;;;;10.48;8.23;;;0.50;99.90;;;;;;5114476;27;20031;-76
2022/04/01 12:38:23;;;;;;;14.60;11.02;;;0.50;99.90;;;;;;5112457;28;20069;-77
2022/04/01 12:40:59;;;;;;;17.27;12.10;;;0.40;99.90;;;;;;5114326;28;20411;-75
2022/04/01 12:43:37;;;;;;;14.57;10.80;;;0.40;99.90;;;;;;5114332;28;20015;-74
2022/04/01 12:46:11;;;;;;;14.50;10.40;;;0.30;99.90;;;;;;5114376;28;20027;-77
2022/04/01 12:48:51;;;;;;;15.43;10.73;;;0.20;99.90;;;;;;5114055;28;20106;-75
2022/04/01 12:51:20;;;;;;;16.15;10.82;;;0.20;99.90;;;;;;5114283;28;20106;-80
2022/04/01 12:53:55;;;;;;;14.80;10.07;;;0.10;99.90;;;;;;5114086;28;20031;-80
2022/04/01 12:56:28;;;;;;;11.45;8.77;;;0.00;99.90;;;;;;5111878;28;20430;-77
2022/04/01 12:58:56;;;;;;;22.55;13.95;;;-0.20;99.90;;;;;;5113845;28;20058;-72
2022/04/01 13:01:26;;;;;;;11.73;7.88;;;-0.10;99.90;;;;;;5112538;28;20024;-74
2022/04/01 13:03:56;;;;;;;19.85;12.13;;;-0.10;99.90;;;;;;5112493;28;20037;-73
2022/04/01 13:06:23;;;;;;;18.92;13.18;;;0.00;99.90;;;;;;5111783;28;20023;-73
2022/04/01 13:09:04;;;;;;;18.15;13.25;;;0.10;99.90;;;;;;5103580;28;20020;-72
2022/04/01 13:11:39;;;;;;;16.02;12.77;;;0.10;99.90;;;;;;5103699;28;20488;-72
2022/04/01 13:14:18;;;;;;;20.48;12.77;;;0.20;99.90;;;;;;5102774;28;20025;-72
2022/04/01 13:16:48;;;;;;;15.80;10.13;;;0.20;99.90;;;;;;5102888;28;20012;-72
2022/04/01 13:19:33;;;;;;;20.33;13.73;;;0.20;99.90;;;;;;5100332;28;20021;-72